Time;durP1;ratioP1;P1;durP2;ratioP2;P2;SDS_P1;SDS_P2;PMS_P1;PMS_P2;Temp;Humidity;BMP_temperature;BMP_pressure;BME280_temperature;BME280_humidity;BME280_pressure;Samples;Min_cycle;Max_cycle;Signal;HPM_P1;HPM_P2
2022/05/19 00:01:04;;;;;;;10.90;4.60;;;17.00;99.90;;;;;;5011136;28;20547;-54
2022/05/19 00:03:33;;;;;;;3.77;3.53;;;17.00;99.90;;;;;;5010342;28;20475;-52
2022/05/19 00:06:01;;;;;;;6.83;4.10;;;17.00;99.90;;;;;;5003844;28;20479;-55
2022/05/19 00:08:28;;;;;;;4.07;3.80;;;17.00;99.90;;;;;;5008385;28;20459;-54
2022/05/19 00:10:58;;;;;;;4.50;4.10;;;17.00;99.90;;;;;;5008734;28;21129;-53
2022/05/19 00:13:25;;;;;;;13.33;4.93;;;16.90;99.90;;;;;;5007919;28;21306;-54
2022/05/19 00:15:52;;;;;;;4.70;4.33;;;16.90;99.90;;;;;;5007315;28;20549;-54
2022/05/19 00:18:19;;;;;;;4.90;4.50;;;16.80;99.90;;;;;;5009372;28;20558;-55
2022/05/19 00:20:47;;;;;;;4.93;4.50;;;16.80;99.90;;;;;;5009611;28;20996;-54
2022/05/19 00:23:14;;;;;;;12.50;4.77;;;16.80;99.90;;;;;;5007890;28;20460;-54
2022/05/19 00:25:41;;;;;;;8.90;4.47;;;16.80;99.90;;;;;;5008890;28;20546;-54
2022/05/19 00:28:08;;;;;;;4.40;4.10;;;16.70;99.90;;;;;;5001686;28;20471;-54
2022/05/19 00:30:35;;;;;;;4.27;3.87;;;16.70;99.90;;;;;;5008632;28;21041;-54
2022/05/19 00:33:02;;;;;;;6.97;5.20;;;16.70;99.90;;;;;;5007592;28;21088;-55
2022/05/19 00:35:29;;;;;;;4.33;4.03;;;16.70;99.90;;;;;;5009257;28;20546;-54
2022/05/19 00:37:57;;;;;;;4.30;4.00;;;16.70;99.90;;;;;;5005576;28;20568;-54
2022/05/19 00:40:25;;;;;;;12.63;4.60;;;16.70;99.90;;;;;;5007112;28;20917;-54
2022/05/19 00:42:52;;;;;;;4.27;3.87;;;16.60;99.90;;;;;;5006198;28;20542;-54
2022/05/19 00:45:20;;;;;;;5.63;3.40;;;16.60;99.90;;;;;;5008458;28;20554;-53
2022/05/19 00:47:51;;;;;;;4.70;3.70;;;16.60;99.90;;;;;;5010493;28;20902;-54
2022/05/19 00:50:22;;;;;;;4.33;4.03;;;16.50;99.90;;;;;;5008284;28;20546;-54
2022/05/19 00:52:52;;;;;;;5.03;4.00;;;16.50;99.90;;;;;;5001884;28;21099;-56
2022/05/19 00:55:25;;;;;;;11.47;4.10;;;16.40;99.90;;;;;;5005127;28;20495;-53
2022/05/19 00:57:58;;;;;;;3.63;3.40;;;16.40;99.90;;;;;;5004772;28;20498;-54
2022/05/19 01:00:25;;;;;;;5.73;4.90;;;16.30;99.90;;;;;;5007227;28;21084;-53
2022/05/19 01:02:54;;;;;;;4.33;3.97;;;16.30;99.90;;;;;;5007736;28;21042;-54
2022/05/19 01:05:25;;;;;;;4.47;4.03;;;16.30;99.90;;;;;;5007886;28;20961;-53
2022/05/19 01:07:56;;;;;;;3.70;3.40;;;16.20;99.90;;;;;;5009657;28;20518;-54
2022/05/19 01:10:25;;;;;;;5.47;3.77;;;16.20;99.90;;;;;;5009731;28;20560;-54
2022/05/19 01:12:54;;;;;;;3.70;3.40;;;16.20;99.90;;;;;;5005824;28;20574;-54
2022/05/19 01:15:20;;;;;;;6.67;4.70;;;16.10;99.90;;;;;;5008933;28;21025;-53
2022/05/19 01:17:48;;;;;;;8.23;4.17;;;16.10;99.90;;;;;;5010196;28;20596;-53
2022/05/19 01:20:17;;;;;;;4.40;3.90;;;16.00;99.90;;;;;;5010479;28;20468;-53
2022/05/19 01:22:52;;;;;;;5.37;3.87;;;16.00;99.90;;;;;;5006116;28;20969;-54
2022/05/19 01:25:27;;;;;;;4.63;3.93;;;15.90;99.90;;;;;;5009222;28;20550;-53
2022/05/19 01:27:55;;;;;;;9.47;4.40;;;16.00;99.90;;;;;;5013199;28;21014;-54
2022/05/19 01:30:22;;;;;;;4.17;3.90;;;15.90;99.90;;;;;;5013648;28;20487;-53
2022/05/19 01:32:48;;;;;;;5.10;3.80;;;15.90;99.90;;;;;;5009344;28;21012;-55
2022/05/19 01:35:15;;;;;;;6.60;3.90;;;15.80;99.90;;;;;;5012288;28;20586;-55
2022/05/19 01:37:42;;;;;;;8.97;4.70;;;15.80;99.90;;;;;;5001831;28;21213;-55
2022/05/19 01:40:27;;;;;;;4.67;4.20;;;15.80;99.90;;;;;;5009736;28;20908;-56
2022/05/19 01:43:04;;;;;;;6.20;3.80;;;15.80;99.90;;;;;;5010784;28;20535;-54
2022/05/19 01:45:43;;;;;;;6.00;4.30;;;15.80;99.90;;;;;;5003640;28;20451;-54
2022/05/19 01:48:16;;;;;;;4.60;4.20;;;15.80;99.90;;;;;;5011680;28;20487;-54
2022/05/19 01:50:50;;;;;;;4.70;4.30;;;15.80;99.90;;;;;;5011785;28;20491;-54
2022/05/19 01:53:21;;;;;;;4.30;3.90;;;15.70;99.90;;;;;;5010108;28;21009;-54
2022/05/19 01:55:53;;;;;;;4.07;3.70;;;15.70;99.90;;;;;;5009325;28;20537;-53
2022/05/19 01:58:27;;;;;;;5.87;3.70;;;15.60;99.90;;;;;;5012465;28;20467;-54
2022/05/19 02:00:58;;;;;;;7.43;4.33;;;15.60;99.90;;;;;;5009274;28;20487;-53
2022/05/19 02:03:33;;;;;;;3.93;3.63;;;15.50;99.90;;;;;;5012165;28;20491;-54
2022/05/19 02:06:05;;;;;;;13.57;4.30;;;15.60;99.90;;;;;;5011225;28;20514;-55
2022/05/19 02:08:38;;;;;;;6.00;4.97;;;15.50;99.90;;;;;;5005559;28;20459;-53
2022/05/19 02:11:09;;;;;;;5.40;3.60;;;15.60;99.90;;;;;;5011175;28;20492;-54
2022/05/19 02:13:38;;;;;;;3.70;3.13;;;15.50;99.90;;;;;;5011516;28;20478;-54
2022/05/19 02:16:07;;;;;;;5.17;4.27;;;15.40;99.90;;;;;;5008954;28;20520;-54
2022/05/19 02:18:35;;;;;;;4.73;4.23;;;15.40;99.90;;;;;;5013182;28;20464;-54
2022/05/19 02:21:04;;;;;;;6.13;3.80;;;15.40;99.90;;;;;;5012343;28;20505;-54
2022/05/19 02:23:32;;;;;;;4.50;4.20;;;15.30;99.90;;;;;;5009239;28;20986;-54
2022/05/19 02:25:59;;;;;;;5.30;4.80;;;15.30;99.90;;;;;;5011895;28;20515;-54
2022/05/19 02:28:28;;;;;;;5.60;4.30;;;15.30;99.90;;;;;;5013546;28;20488;-54
2022/05/19 02:30:57;;;;;;;11.03;4.63;;;15.20;99.90;;;;;;5009554;28;20977;-55
2022/05/19 02:33:24;;;;;;;5.10;4.60;;;15.20;99.90;;;;;;5010206;28;20518;-55
2022/05/19 02:35:51;;;;;;;8.43;4.63;;;15.20;99.90;;;;;;5011266;28;20598;-55
2022/05/19 02:38:20;;;;;;;5.63;5.13;;;15.20;99.90;;;;;;5008482;28;20472;-52
2022/05/19 02:40:47;;;;;;;7.80;4.00;;;15.20;99.90;;;;;;5011355;28;20495;-54
2022/05/19 02:43:15;;;;;;;5.27;4.87;;;15.20;99.90;;;;;;5009183;28;20864;-53
2022/05/19 02:45:42;;;;;;;5.10;4.70;;;15.20;99.90;;;;;;5011377;28;20495;-54
2022/05/19 02:48:11;;;;;;;6.07;4.80;;;15.10;99.90;;;;;;5010768;28;20894;-55
2022/05/19 02:50:39;;;;;;;5.97;4.10;;;15.10;99.90;;;;;;5010296;28;20884;-54
2022/05/19 02:53:06;;;;;;;5.10;3.90;;;15.10;99.90;;;;;;5008250;28;20502;-55
2022/05/19 02:55:33;;;;;;;5.97;4.37;;;15.10;99.90;;;;;;5011330;28;20445;-53
2022/05/19 02:58:00;;;;;;;4.30;3.67;;;15.10;99.90;;;;;;5004209;28;20528;-55
2022/05/19 03:00:27;;;;;;;4.97;4.03;;;15.10;99.90;;;;;;5010503;28;20491;-54
2022/05/19 03:02:55;;;;;;;7.20;5.00;;;15.00;99.90;;;;;;5008522;28;20976;-54
2022/05/19 03:05:25;;;;;;;4.70;4.07;;;15.10;99.90;;;;;;5010528;28;20491;-54
2022/05/19 03:07:51;;;;;;;5.70;3.97;;;15.00;99.20;;;;;;5010643;28;20511;-54
2022/05/19 03:10:19;;;;;;;13.17;4.40;;;15.00;99.90;;;;;;5008864;28;20969;-54
2022/05/19 03:12:45;;;;;;;4.27;3.90;;;15.00;99.90;;;;;;5008062;28;20496;-54
2022/05/19 03:15:13;;;;;;;4.23;3.93;;;15.00;99.90;;;;;;5011097;28;20519;-53
2022/05/19 03:17:40;;;;;;;7.60;4.20;;;15.00;99.90;;;;;;5009374;28;20537;-54
2022/05/19 03:20:08;;;;;;;4.97;3.77;;;15.00;99.90;;;;;;5005216;28;20491;-54
2022/05/19 03:22:36;;;;;;;17.17;4.07;;;14.90;97.70;;;;;;5005747;28;20491;-54
2022/05/19 03:25:04;;;;;;;4.27;3.87;;;14.90;92.80;;;;;;5003930;28;20514;-53
2022/05/19 03:27:30;;;;;;;7.60;3.77;;;14.90;92.20;;;;;;5006071;28;20519;-55
2022/05/19 03:29:57;;;;;;;5.40;4.40;;;14.90;95.90;;;;;;5003734;28;20495;-55
2022/05/19 03:32:23;;;;;;;3.90;3.60;;;14.90;97.90;;;;;;5008462;28;20491;-54
2022/05/19 03:34:50;;;;;;;4.73;4.30;;;14.90;99.20;;;;;;5008601;28;21090;-54
2022/05/19 03:37:16;;;;;;;7.70;3.87;;;14.90;97.80;;;;;;5010922;28;20518;-55
2022/05/19 03:39:44;;;;;;;4.60;4.17;;;14.90;96.00;;;;;;5011600;28;20483;-53
2022/05/19 03:42:11;;;;;;;4.20;3.63;;;14.90;97.30;;;;;;5007688;28;20633;-53
2022/05/19 03:44:38;;;;;;;13.57;3.80;;;15.00;96.70;;;;;;5010375;28;20491;-54
2022/05/19 03:47:06;;;;;;;10.57;3.87;;;14.90;96.40;;;;;;5003066;28;20515;-54
2022/05/19 03:49:33;;;;;;;6.23;4.00;;;14.90;94.30;;;;;;5006594;28;20495;-53
2022/05/19 03:52:00;;;;;;;9.33;3.63;;;14.90;94.80;;;;;;5007110;28;20498;-52
2022/05/19 03:54:27;;;;;;;4.50;4.17;;;14.90;92.50;;;;;;5011056;28;20941;-52
2022/05/19 03:56:54;;;;;;;7.70;3.87;;;15.00;96.90;;;;;;5006496;28;20511;-52
2022/05/19 03:59:21;;;;;;;8.70;3.80;;;14.90;95.00;;;;;;5007294;28;20467;-52
2022/05/19 04:01:48;;;;;;;6.10;3.53;;;14.90;96.30;;;;;;5007323;28;20463;-52
2022/05/19 04:04:14;;;;;;;8.00;3.77;;;14.90;97.70;;;;;;5006804;28;20463;-52
2022/05/19 04:06:41;;;;;;;5.10;3.70;;;14.90;95.40;;;;;;5009861;28;20511;-51
2022/05/19 04:09:07;;;;;;;4.00;3.47;;;14.90;96.20;;;;;;5004615;28;20495;-53
2022/05/19 04:11:34;;;;;;;6.85;3.65;;;14.90;95.30;;;;;;5004346;28;20514;-53
2022/05/19 04:14:02;;;;;;;7.10;4.30;;;14.90;91.20;;;;;;5011120;28;20259;-54
2022/05/19 04:16:29;;;;;;;7.53;3.73;;;14.90;88.60;;;;;;5009644;28;20483;-54
2022/05/19 04:18:56;;;;;;;4.37;3.53;;;14.90;89.20;;;;;;5007690;28;20487;-53
2022/05/19 04:21:22;;;;;;;4.20;3.90;;;14.90;97.10;;;;;;5006421;28;20466;-53
2022/05/19 04:23:49;;;;;;;6.50;3.27;;;14.90;97.50;;;;;;5010076;28;20483;-52
2022/05/19 04:26:15;;;;;;;7.87;3.60;;;14.90;94.90;;;;;;5004121;28;20515;-52
2022/05/19 04:28:42;;;;;;;8.73;3.80;;;14.90;94.50;;;;;;5010774;28;20479;-53
2022/05/19 04:31:10;;;;;;;7.33;3.27;;;14.90;89.30;;;;;;5009347;28;20561;-53
2022/05/19 04:33:36;;;;;;;10.53;3.83;;;14.90;87.60;;;;;;5012015;28;20905;-53
2022/05/19 04:36:03;;;;;;;5.27;3.80;;;15.00;96.20;;;;;;5004737;28;20546;-53
2022/05/19 04:38:30;;;;;;;13.73;3.90;;;15.00;94.70;;;;;;5007158;28;20499;-53
2022/05/19 04:41:02;;;;;;;5.00;3.67;;;15.00;94.10;;;;;;5001080;28;20456;-53
2022/05/19 04:43:28;;;;;;;9.03;3.60;;;15.10;94.80;;;;;;5006005;28;20535;-53
2022/05/19 04:45:56;;;;;;;6.93;4.60;;;15.10;94.50;;;;;;4997065;28;20484;-54
2022/05/19 04:48:26;;;;;;;12.50;4.20;;;15.20;93.70;;;;;;5001492;28;20537;-54
2022/05/19 04:50:54;;;;;;;10.73;3.60;;;15.20;95.70;;;;;;5000945;28;21567;-53
2022/05/19 04:53:21;;;;;;;4.67;4.10;;;15.30;95.60;;;;;;4996777;28;20558;-53
2022/05/19 04:55:48;;;;;;;6.50;3.57;;;15.40;98.20;;;;;;4992731;28;20487;-52
2022/05/19 04:58:15;;;;;;;5.87;4.20;;;15.40;99.90;;;;;;5000779;28;20522;-52
2022/05/19 05:00:42;;;;;;;4.57;4.23;;;15.50;99.90;;;;;;5003200;28;20480;-52
2022/05/19 05:03:09;;;;;;;5.40;4.33;;;15.50;99.90;;;;;;5004239;28;20486;-53
2022/05/19 05:05:36;;;;;;;13.17;4.27;;;15.60;99.90;;;;;;5003211;28;20510;-52
2022/05/19 05:08:03;;;;;;;6.80;3.70;;;15.70;99.90;;;;;;5001953;28;20562;-53
2022/05/19 05:10:30;;;;;;;8.53;5.23;;;15.70;99.90;;;;;;5005419;28;20459;-52
2022/05/19 05:12:57;;;;;;;8.80;3.97;;;15.80;99.90;;;;;;5005286;28;20482;-52
2022/05/19 05:15:24;;;;;;;15.33;4.67;;;15.80;99.90;;;;;;4997537;28;20566;-53
2022/05/19 05:17:51;;;;;;;9.30;5.27;;;15.80;99.90;;;;;;5000925;28;21036;-53
2022/05/19 05:20:17;;;;;;;5.50;3.83;;;15.90;99.90;;;;;;5006292;28;20467;-52
2022/05/19 05:22:45;;;;;;;13.33;4.47;;;15.90;99.90;;;;;;5004871;28;20492;-52
2022/05/19 05:25:14;;;;;;;5.33;4.00;;;16.00;99.90;;;;;;5002469;28;20447;-53
2022/05/19 05:27:41;;;;;;;7.03;3.87;;;16.00;99.90;;;;;;5009435;28;20503;-53
2022/05/19 05:30:09;;;;;;;7.50;4.80;;;16.00;99.90;;;;;;5008462;28;20844;-54
2022/05/19 05:32:36;;;;;;;26.20;5.83;;;16.10;99.90;;;;;;5000062;28;21036;-53
2022/05/19 05:35:04;;;;;;;9.40;5.90;;;16.10;99.90;;;;;;5006787;28;20504;-53
2022/05/19 05:37:31;;;;;;;6.00;3.80;;;16.20;99.90;;;;;;4999522;28;20909;-53
2022/05/19 05:39:59;;;;;;;4.50;3.80;;;16.20;99.90;;;;;;5001407;28;20471;-53
2022/05/19 05:42:25;;;;;;;8.63;5.90;;;16.20;99.90;;;;;;5002223;28;20936;-54
2022/05/19 05:44:52;;;;;;;11.00;4.33;;;16.30;99.90;;;;;;5004235;28;21148;-54
2022/05/19 05:47:18;;;;;;;21.33;5.60;;;16.30;99.90;;;;;;5003418;28;20529;-53
2022/05/19 05:49:45;;;;;;;6.67;4.57;;;16.30;99.90;;;;;;5014918;28;20479;-53
2022/05/19 05:52:12;;;;;;;4.53;4.13;;;16.40;99.90;;;;;;5011709;28;20472;-54
2022/05/19 05:54:38;;;;;;;5.37;4.83;;;16.40;99.90;;;;;;5011759;28;20523;-53
2022/05/19 05:57:06;;;;;;;11.57;5.67;;;16.40;99.90;;;;;;5012012;28;20530;-53
2022/05/19 05:59:33;;;;;;;5.43;4.80;;;16.50;99.90;;;;;;5011956;28;20471;-54
2022/05/19 06:01:59;;;;;;;7.43;4.33;;;16.50;98.60;;;;;;5009367;28;20495;-53
2022/05/19 06:04:26;;;;;;;7.10;4.17;;;16.60;97.20;;;;;;5012560;28;20997;-52
2022/05/19 06:06:52;;;;;;;7.23;4.13;;;16.60;93.10;;;;;;5011863;28;20510;-54
2022/05/19 06:09:19;;;;;;;4.83;3.90;;;16.70;93.70;;;;;;5011382;28;20475;-54
2022/05/19 06:11:46;;;;;;;7.73;5.03;;;16.80;91.10;;;;;;5006183;28;20495;-54
2022/05/19 06:14:13;;;;;;;4.17;3.87;;;16.80;94.70;;;;;;5007783;28;20519;-54
2022/05/19 06:16:40;;;;;;;6.07;4.30;;;16.90;95.90;;;;;;5006710;28;20508;-53
2022/05/19 06:19:06;;;;;;;8.13;4.30;;;17.10;96.40;;;;;;5013863;28;20468;-53
2022/05/19 06:21:36;;;;;;;12.33;4.07;;;17.10;97.20;;;;;;5011052;28;20487;-53
2022/05/19 06:24:04;;;;;;;10.63;6.27;;;17.20;96.60;;;;;;5022616;28;20487;-53
2022/05/19 06:26:33;;;;;;;9.00;5.80;;;17.40;99.90;;;;;;5007528;28;20495;-54
2022/05/19 06:28:59;;;;;;;4.90;4.50;;;17.50;99.90;;;;;;5007842;28;20546;-54
2022/05/19 06:31:27;;;;;;;5.27;3.80;;;17.60;99.90;;;;;;5007042;28;20455;-53
2022/05/19 06:33:54;;;;;;;9.53;5.17;;;17.70;99.90;;;;;;5006819;28;20464;-53
2022/05/19 06:36:20;;;;;;;6.77;4.33;;;17.80;99.90;;;;;;5000348;28;20511;-54
2022/05/19 06:38:47;;;;;;;10.93;4.10;;;17.90;99.90;;;;;;4997781;28;20538;-53
2022/05/19 06:43:58;;;;;;;9.40;5.10;;;18.10;99.90;;;;;;5003238;28;21218;-54
2022/05/19 06:46:25;;;;;;;7.70;4.53;;;18.20;99.90;;;;;;5005994;28;20522;-53
2022/05/19 06:48:52;;;;;;;8.00;3.43;;;18.30;99.90;;;;;;5009672;28;20459;-49
2022/05/19 06:51:19;;;;;;;15.70;4.50;;;18.30;99.90;;;;;;5007744;28;20586;-50
2022/05/19 06:53:46;;;;;;;9.63;4.47;;;18.50;99.90;;;;;;5004278;28;20484;-49
2022/05/19 06:56:12;;;;;;;4.20;3.90;;;18.50;99.90;;;;;;5007562;28;20507;-49
2022/05/19 06:58:39;;;;;;;7.30;4.80;;;18.70;99.90;;;;;;5012373;28;20463;-49
2022/05/19 07:01:06;;;;;;;7.93;4.40;;;18.70;99.90;;;;;;5012295;28;20968;-49
2022/05/19 07:03:33;;;;;;;8.73;4.00;;;18.90;99.90;;;;;;5012190;28;20500;-49
2022/05/19 07:06:01;;;;;;;4.33;3.90;;;19.00;99.90;;;;;;5009455;28;20488;-50
2022/05/19 07:08:27;;;;;;;7.03;4.00;;;19.10;99.90;;;;;;5010530;28;20463;-49
2022/05/19 07:10:54;;;;;;;7.83;4.00;;;19.30;99.90;;;;;;5012614;28;20499;-49
2022/05/19 07:13:21;;;;;;;8.80;4.20;;;19.30;99.90;;;;;;5010752;28;20469;-49
2022/05/19 07:15:47;;;;;;;14.80;3.80;;;19.40;99.90;;;;;;5007559;28;20518;-49
2022/05/19 07:18:14;;;;;;;13.40;5.27;;;19.50;99.90;;;;;;5005131;28;20553;-49
2022/05/19 07:20:48;;;;;;;5.03;3.83;;;19.50;99.90;;;;;;5009778;28;20487;-50
2022/05/19 07:23:19;;;;;;;8.03;3.93;;;19.60;99.90;;;;;;5010924;28;20482;-50
2022/05/19 07:25:47;;;;;;;10.30;4.57;;;19.70;99.90;;;;;;5006134;28;20811;-49
2022/05/19 07:28:14;;;;;;;6.50;4.00;;;19.80;99.90;;;;;;5013199;28;20990;-50
2022/05/19 07:30:41;;;;;;;6.70;3.97;;;19.90;99.90;;;;;;5014055;28;20506;-49
2022/05/19 07:33:08;;;;;;;5.37;4.37;;;20.00;99.90;;;;;;5012655;28;20459;-50
2022/05/19 07:35:35;;;;;;;6.23;4.23;;;20.00;99.90;;;;;;5011484;28;20936;-49
2022/05/19 07:38:02;;;;;;;9.60;4.40;;;20.10;99.90;;;;;;5012276;28;20899;-49
2022/05/19 07:40:30;;;;;;;14.13;4.00;;;20.20;99.90;;;;;;5006011;28;20463;-49
2022/05/19 07:43:35;;;;;;;6.37;4.00;;;20.20;99.90;;;;;;5009380;28;20495;-49
2022/05/19 07:45:45;;;;;;;9.33;4.00;;;20.30;99.90;;;;;;5008392;28;20838;-50
2022/05/19 07:48:12;;;;;;;14.00;5.07;;;20.40;99.90;;;;;;5008614;28;20487;-49
2022/05/19 07:50:38;;;;;;;5.07;3.77;;;20.50;99.90;;;;;;5009307;28;20499;-49
2022/05/19 07:53:05;;;;;;;5.10;4.00;;;20.60;99.90;;;;;;5008047;28;20498;-49
2022/05/19 07:55:33;;;;;;;3.80;3.50;;;20.70;99.90;;;;;;5007331;28;20483;-49
2022/05/19 07:58:00;;;;;;;7.30;4.77;;;20.70;99.90;;;;;;5010433;28;20526;-50
2022/05/19 08:00:26;;;;;;;7.10;4.23;;;20.80;99.90;;;;;;5005785;28;20460;-49
2022/05/19 08:02:53;;;;;;;5.20;4.17;;;20.90;99.90;;;;;;5008283;28;20506;-50
2022/05/19 08:05:19;;;;;;;7.00;4.10;;;21.00;99.90;;;;;;5010622;28;20498;-49
2022/05/19 08:07:46;;;;;;;4.13;3.77;;;21.10;99.90;;;;;;5011887;28;20611;-49
2022/05/19 08:10:23;;;;;;;4.97;4.30;;;21.10;99.90;;;;;;5011329;28;20467;-48
2022/05/19 08:15:37;;;;;;;4.93;4.37;;;21.30;99.90;;;;;;5007580;28;20478;-49
2022/05/19 08:18:06;;;;;;;9.47;4.70;;;21.40;99.90;;;;;;5005839;28;20558;-50
2022/05/19 08:20:33;;;;;;;5.53;4.30;;;21.50;99.90;;;;;;5008384;28;20522;-49
2022/05/19 08:23:00;;;;;;;7.80;4.17;;;21.70;99.90;;;;;;5008662;28;20938;-50
2022/05/19 08:25:28;;;;;;;13.73;4.60;;;21.80;99.90;;;;;;5000245;28;20456;-48
2022/05/19 08:27:58;;;;;;;6.20;4.33;;;21.90;99.90;;;;;;5004121;28;20476;-49
2022/05/19 08:30:26;;;;;;;8.17;4.20;;;22.00;99.90;;;;;;5004967;28;20579;-49
2022/05/19 08:32:52;;;;;;;5.77;4.07;;;22.10;99.90;;;;;;4999256;28;20464;-49
2022/05/19 08:35:20;;;;;;;5.13;4.73;;;22.30;99.90;;;;;;5008323;28;20483;-49
2022/05/19 08:37:47;;;;;;;11.03;4.37;;;22.40;99.90;;;;;;5008787;28;20919;-49
2022/05/19 08:40:14;;;;;;;7.70;4.23;;;22.40;99.90;;;;;;5008844;28;20554;-49
2022/05/19 08:42:46;;;;;;;4.97;4.20;;;22.60;99.90;;;;;;5007601;28;20463;-49
2022/05/19 08:45:20;;;;;;;6.90;4.40;;;22.70;99.90;;;;;;5011790;28;20455;-49
2022/05/19 08:47:49;;;;;;;9.70;4.27;;;22.80;99.90;;;;;;5006902;28;20527;-49
2022/05/19 08:50:28;;;;;;;11.43;5.30;;;23.00;99.90;;;;;;5009572;28;20473;-48
2022/05/19 08:52:55;;;;;;;7.33;4.03;;;23.10;99.90;;;;;;5007510;28;20903;-49
2022/05/19 08:55:22;;;;;;;11.33;5.10;;;23.30;99.90;;;;;;5004126;28;20578;-48
2022/05/19 08:58:00;;;;;;;8.67;4.70;;;23.30;99.90;;;;;;5006828;28;21058;-49
2022/05/19 09:00:35;;;;;;;15.07;5.00;;;23.40;99.90;;;;;;5011680;28;20459;-49
2022/05/19 09:03:10;;;;;;;8.03;4.60;;;23.70;99.90;;;;;;5007081;28;20515;-50
2022/05/19 09:05:58;;;;;;;7.50;5.00;;;23.90;99.90;;;;;;5011157;28;20545;-49
2022/05/19 09:08:34;;;;;;;11.20;4.70;;;23.90;99.90;;;;;;5003616;28;20474;-53
2022/05/19 09:11:07;;;;;;;8.07;4.60;;;23.90;99.90;;;;;;5002692;28;20451;-49
2022/05/19 09:13:38;;;;;;;8.43;4.83;;;24.00;99.90;;;;;;5004030;28;20507;-49
2022/05/19 09:16:12;;;;;;;4.50;4.17;;;24.10;99.90;;;;;;5004114;28;20487;-49
2022/05/19 09:18:44;;;;;;;5.20;4.70;;;24.00;99.90;;;;;;5005976;28;20474;-49
2022/05/19 09:21:11;;;;;;;8.93;4.50;;;24.00;99.90;;;;;;4993280;28;20914;-49
2022/05/19 09:23:40;;;;;;;17.37;5.30;;;24.10;99.90;;;;;;5000983;28;20495;-50
2022/05/19 09:26:43;;;;;;;6.67;3.87;;;24.30;99.90;;;;;;5005468;28;20923;-49
2022/05/19 09:29:13;;;;;;;7.67;5.37;;;24.30;99.90;;;;;;5001435;28;20498;-49
2022/05/19 09:31:43;;;;;;;5.00;4.50;;;24.30;99.90;;;;;;5000621;28;20483;-49
2022/05/19 09:34:11;;;;;;;5.37;4.87;;;24.30;99.90;;;;;;5004978;28;20467;-49
2022/05/19 09:36:41;;;;;;;7.70;4.17;;;24.50;99.90;;;;;;5003775;28;20588;-49
2022/05/19 09:39:13;;;;;;;6.13;5.40;;;24.50;99.90;;;;;;4997791;28;20470;-49
2022/05/19 09:41:45;;;;;;;8.17;4.33;;;24.60;99.90;;;;;;5004257;28;20542;-50
2022/05/19 09:44:14;;;;;;;7.53;4.13;;;24.70;99.90;;;;;;5006856;28;20502;-49
2022/05/19 09:46:47;;;;;;;18.83;5.10;;;24.80;99.90;;;;;;5008554;28;20519;-50
2022/05/19 09:49:26;;;;;;;4.60;4.20;;;24.90;99.90;;;;;;5006569;28;20996;-50
2022/05/19 09:51:52;;;;;;;3.70;3.50;;;25.10;99.90;;;;;;5005461;28;20953;-49
2022/05/19 09:54:23;;;;;;;4.20;3.90;;;25.30;99.90;;;;;;5012506;28;20463;-49
2022/05/19 09:56:52;;;;;;;9.00;4.10;;;25.40;99.90;;;;;;5007819;28;20530;-49
2022/05/19 09:59:21;;;;;;;6.50;3.53;;;25.40;99.90;;;;;;5008835;28;20887;-49
2022/05/19 10:02:01;;;;;;;10.43;3.37;;;25.30;99.90;;;;;;5005816;28;20499;-49
2022/05/19 10:04:39;;;;;;;14.73;4.17;;;25.40;99.90;;;;;;5012602;28;20553;-49
2022/05/19 10:07:09;;;;;;;8.57;4.30;;;25.50;99.90;;;;;;5014351;28;20502;-49
2022/05/19 10:09:42;;;;;;;4.40;4.10;;;25.60;99.90;;;;;;5014284;28;20462;-49
2022/05/19 10:12:11;;;;;;;4.47;4.03;;;25.80;99.90;;;;;;5011028;28;20546;-49
2022/05/19 10:14:40;;;;;;;4.07;3.60;;;25.80;99.90;;;;;;5009733;28;20455;-49
2022/05/19 10:17:16;;;;;;;18.67;4.03;;;25.90;99.90;;;;;;5007573;28;20492;-50
2022/05/19 10:19:54;;;;;;;4.83;4.03;;;26.00;99.90;;;;;;5005130;28;20521;-50
2022/05/19 10:22:37;;;;;;;8.70;4.27;;;26.10;99.90;;;;;;5007727;28;20492;-49
2022/05/19 10:25:19;;;;;;;14.47;4.03;;;26.20;99.90;;;;;;5009097;28;20937;-49
2022/05/19 10:31:05;;;;;;;6.40;4.27;;;26.60;99.90;;;;;;5014470;28;20562;-49
2022/05/19 10:33:48;;;;;;;6.13;3.70;;;26.70;99.90;;;;;;5009338;28;20456;-49
2022/05/19 10:36:21;;;;;;;4.67;3.70;;;26.70;99.90;;;;;;4995532;28;20488;-49
2022/05/19 10:39:02;;;;;;;3.60;3.30;;;26.70;99.90;;;;;;5005883;28;20463;-49
2022/05/19 10:41:43;;;;;;;8.73;3.73;;;26.40;99.90;;;;;;5013669;28;20937;-49
2022/05/19 10:44:24;;;;;;;5.60;3.37;;;26.60;99.90;;;;;;5017959;28;20487;-49
2022/05/19 10:46:59;;;;;;;4.00;3.60;;;26.60;99.90;;;;;;5011788;28;20561;-49
2022/05/19 10:49:47;;;;;;;6.20;3.53;;;26.70;99.90;;;;;;5013521;28;20463;-49
2022/05/19 10:52:28;;;;;;;4.73;3.53;;;26.70;99.90;;;;;;5013711;28;20482;-49
2022/05/19 10:55:08;;;;;;;4.07;3.70;;;26.60;99.90;;;;;;5013367;28;20824;-49
2022/05/19 10:58:11;;;;;;;3.80;3.50;;;26.60;99.90;;;;;;5010431;28;20490;-49
2022/05/19 11:00:52;;;;;;;3.77;3.33;;;26.70;99.90;;;;;;5013415;28;20454;-50
2022/05/19 11:03:34;;;;;;;8.43;3.97;;;26.70;99.90;;;;;;5009363;28;20475;-50
2022/05/19 11:06:16;;;;;;;4.10;3.43;;;26.70;99.90;;;;;;5013439;28;20954;-50
2022/05/19 11:08:57;;;;;;;4.20;3.90;;;26.80;99.90;;;;;;5013831;28;20964;-50
2022/05/19 11:11:41;;;;;;;3.60;3.40;;;27.00;99.90;;;;;;5013663;28;20432;-50
2022/05/19 11:14:18;;;;;;;6.17;3.40;;;27.00;99.90;;;;;;5006067;28;20905;-49
2022/05/19 11:16:54;;;;;;;4.37;4.00;;;26.90;99.90;;;;;;5011888;28;20523;-50
2022/05/19 11:19:27;;;;;;;3.60;3.30;;;27.00;99.90;;;;;;5013731;28;20494;-49
2022/05/19 11:21:58;;;;;;;5.93;3.53;;;27.00;99.90;;;;;;5013060;28;20466;-49
2022/05/19 11:24:29;;;;;;;8.03;3.13;;;27.00;99.90;;;;;;5010973;28;20452;-50
2022/05/19 11:27:05;;;;;;;5.20;3.07;;;27.00;99.90;;;;;;5011580;28;20491;-50
2022/05/19 11:29:39;;;;;;;17.50;3.03;;;26.90;99.90;;;;;;5013694;28;20431;-50
2022/05/19 11:32:10;;;;;;;5.50;2.37;;;26.90;99.90;;;;;;5012196;28;20470;-50
2022/05/19 11:34:44;;;;;;;8.07;3.53;;;26.80;99.90;;;;;;5010883;28;20468;-50
2022/05/19 11:37:23;;;;;;;3.00;2.77;;;26.80;99.90;;;;;;4997484;28;20495;-49
2022/05/19 11:40:11;;;;;;;4.53;3.13;;;26.90;99.90;;;;;;5002671;28;20478;-49
2022/05/19 11:42:43;;;;;;;3.37;3.07;;;26.90;99.90;;;;;;4993158;28;20911;-49
2022/05/19 11:45:16;;;;;;;5.03;3.37;;;27.00;99.90;;;;;;5005257;28;20582;-50
2022/05/19 11:56:21;;;;;;;5.37;3.40;;;27.40;99.90;;;;;;5006723;28;20483;-49
2022/05/19 11:58:47;;;;;;;3.70;3.40;;;27.40;99.90;;;;;;5011796;28;20884;-49
2022/05/19 12:01:20;;;;;;;3.33;3.03;;;27.50;99.90;;;;;;5012169;28;20495;-49
2022/05/19 12:03:55;;;;;;;4.80;3.43;;;27.60;99.90;;;;;;5012758;28;20996;-50
2022/05/19 12:06:28;;;;;;;5.43;3.93;;;27.50;99.90;;;;;;5012905;28;20460;-50
2022/05/19 12:09:01;;;;;;;6.53;3.40;;;27.70;99.90;;;;;;5011182;28;20862;-48
2022/05/19 12:11:30;;;;;;;3.43;3.23;;;27.80;99.90;;;;;;5001025;28;20562;-49
2022/05/19 12:14:31;;;;;;;3.83;3.00;;;27.80;99.90;;;;;;5011305;28;20882;-50
2022/05/19 12:17:15;;;;;;;10.10;3.40;;;27.60;99.90;;;;;;5012780;28;20589;-50
2022/05/19 12:19:47;;;;;;;3.80;3.50;;;27.60;99.90;;;;;;5012742;28;20494;-49
2022/05/19 12:22:25;;;;;;;8.43;2.90;;;27.80;99.90;;;;;;5010151;28;20485;-49
2022/05/19 12:24:56;;;;;;;4.77;3.57;;;27.90;99.90;;;;;;5010801;28;20481;-49
2022/05/19 12:27:24;;;;;;;2.83;2.63;;;27.90;99.90;;;;;;5016059;28;20474;-49
2022/05/19 12:30:00;;;;;;;3.73;3.43;;;27.80;99.90;;;;;;5011639;28;20491;-50
2022/05/19 12:32:29;;;;;;;5.37;3.40;;;27.80;99.90;;;;;;5010273;28;20836;-49
2022/05/19 12:35:02;;;;;;;2.97;2.77;;;27.80;99.90;;;;;;5012471;28;20451;-50
2022/05/19 12:37:36;;;;;;;5.20;3.50;;;27.80;99.90;;;;;;5012605;28;20534;-50
2022/05/19 12:40:25;;;;;;;10.03;3.63;;;27.80;99.90;;;;;;5012572;28;20451;-49
2022/05/19 12:43:16;;;;;;;7.77;3.60;;;27.80;99.90;;;;;;5004852;28;20491;-49
2022/05/19 12:45:47;;;;;;;4.73;3.13;;;27.80;99.90;;;;;;5007554;28;20872;-49
2022/05/19 12:48:25;;;;;;;2.90;2.80;;;28.00;99.90;;;;;;5004148;28;20443;-49
2022/05/19 12:50:53;;;;;;;3.50;3.20;;;28.10;99.90;;;;;;5010985;28;20452;-50
2022/05/19 12:53:40;;;;;;;3.10;2.70;;;28.30;99.90;;;;;;5011931;28;20464;-50
2022/05/19 12:56:08;;;;;;;6.77;3.00;;;28.20;99.90;;;;;;5010033;28;20487;-50
2022/05/19 12:59:02;;;;;;;3.47;3.20;;;28.20;99.90;;;;;;5011146;28;20900;-50
2022/05/19 13:01:33;;;;;;;5.23;3.00;;;28.00;99.90;;;;;;5008480;28;20459;-50
2022/05/19 13:04:15;;;;;;;5.03;2.90;;;28.00;99.90;;;;;;5010028;28;20459;-50
2022/05/19 13:06:50;;;;;;;3.73;3.10;;;28.00;99.90;;;;;;5012340;28;20491;-49
2022/05/19 13:09:21;;;;;;;6.63;2.93;;;28.00;99.90;;;;;;5025664;28;20484;-50
2022/05/19 13:11:53;;;;;;;3.87;3.07;;;28.00;99.90;;;;;;5010827;28;20467;-49
2022/05/19 13:14:24;;;;;;;8.93;2.90;;;28.20;99.90;;;;;;5009498;28;20522;-50
2022/05/19 13:16:54;;;;;;;7.80;2.87;;;28.10;99.90;;;;;;5012080;28;20928;-49
2022/05/19 13:19:23;;;;;;;4.77;2.77;;;28.20;99.90;;;;;;5013468;28;20456;-50